AirNav   Air Wisconsin Up To $57,000 Bonus
 
 1032 users online  

PS89 Press Enterprise Heliport
Bloomsburg, Pennsylvania, USA

GOING TO BLOOMSBURG?


FAA INFORMATION EFFECTIVE 07 NOVEMBER 2019

Location

FAA Identifier: PS89
Lat/Long: 41-00-43.3110N 076-24-18.7950W
41-00.721850N 076-24.313250W
41.0120308,-76.4052208
(estimated)
Elevation: 490 ft. / 149 m (estimated)
Variation: 11W (1990)
From city: 2 miles E of BLOOMSBURG, PA
Time zone: UTC -5 (UTC -4 during Daylight Saving Time)
Zip code: 17815

Heliport Operations

Heliport use: Private use. Permission required prior to landing
Activation date: 11/1993
Control tower: no
ARTCC: NEW YORK CENTER
FSS: WILLIAMSPORT FLIGHT SERVICE STATION
Attendance: UNATNDD
Wind indicator: yes
Segmented circle: no

Heliport Communications

WX AWOS-3 at 79PN (9 nm W): 118.075 (570-271-8192)
WX AWOS-3 at N79 (12 nm SW): 119.175 (570-672-0389)
WX AWOS-3 at ZER (18 nm S): 127.575 (570-544-2778)
WX AWOS-3 at HZL (19 nm E): 119.975 (570-459-4901)

Nearby radio navigation aids

VOR radial/distance  VOR name  Freq  Var
MIPr102/11.8MILTON VORTAC109.2009W
SEGr067/25.4SELINSGROVE VOR/DME110.4008W
FQMr149/25.7WILLIAMSPORT VOR/DME114.4009W
RAVr029/28.9RAVINE VORTAC114.6011W
LVZr254/35.9WILKES-BARRE VORTAC111.6010W

 
NDB name  Hdg/Dist  Freq  Var  ID
BELLGROVE021/35.232810WBZJ -... --.. .---

Heliport Services

Runway Information

Helipad H1

Dimensions: 60 x 60 ft. / 18 x 18 m
Surface: turf, in good condition
Traffic pattern: leftleft

Heliport Ownership and Management from official FAA records

Ownership: Privately-owned
Owner: PRESS-ENTERPRISE INC
3185 LACKAWANNA AVE
BLOOMSBURG, PA 17815
Phone 570-784-2121
Manager: MICHAEL HUNTINGTON
3185 LACKAWANNA AVE
BLOOMSBURG, PA 17815
Phone 570-784-2121

Additional Remarks

A52-H1 430 FT TOWER 4932 FT NW.
FOR CD CTC WILKES-BARRE APCH AT 570-655-2084.

Instrument Procedures

There are no published instrument procedures at PS89.

Some nearby airports with instrument procedures:

N13 - Bloomsburg Municipal Airport (2 nm SW)
8N8 - Danville Airport (11 nm W)
N79 - Northumberland County Airport (12 nm SW)
KZER - Schuylkill County/Joe Zerbey Airport (18 nm S)
KHZL - Hazleton Regional Airport (19 nm E)
 
Loc | Ops | Rwys | IFR | FBO | Links
Com | Nav | Svcs | Stats | Notes
Area around PS89 (Press Enterprise Heliport)
 
Road maps at: MapQuest Bing Google
 
Aerial photo
No photo
 
Sectional chart

 
Airport distance calculator
Flying to Press Enterprise Heliport? Find the distance to fly.

From to PS89

Sunrise and sunset
Times for 17-Nov-2019
 Local
(UTC-5)
 Zulu
(UTC)
Morning civil twilight06:2711:27
Sunrise06:5711:57
Sunset16:4521:45
Evening civil twilight17:1422:14

Current date and time
Zulu (UTC)  18-Nov-2019 02:12:27
Local (UTC-5)  17-Nov-2019 21:12:27
 
METAR
KHZL 
19nm E 
180158Z AUTO 09005KT 10SM BKN026 OVC031 00/M01 A3008 RMK AO2
KSEG 
24nm SW 
180153Z AUTO 11005KT 10SM OVC024 04/M01 A3008 RMK AO2 SLP192 T00391011
KIPT 
27nm NW 
180154Z 09008KT 10SM OVC027 04/M02 A3007 RMK AO2 SLP190 T00391017 $
K22N 
32nm E 
180156Z AUTO 06004KT 10SM OVC024 02/M01 A3012 RMK AO2
KAVP 
36nm NE 
180154Z 09007KT 8SM OVC035 01/M03 A3010 RMK AO2 SNB41E50 SLP199 P0000 T00111028 $
KMUI 
36nm S 
180156Z AUTO 06003KT 10SM SCT014 OVC020 03/M01 A3008 RMK AO2 CIG 014V020 SLP194 T00261009 $
TAF
KIPT 
27nm NW 
172359Z 1800/1824 VRB03KT P6SM OVC030 TEMPO 1800/1804 OVC035 FM181700 VRB02KT P6SM BKN035 OVC150
NOTAMs
Click for the latest NOTAMs
NOTAMs are issued by the DoD/FAA and will open in a separate window not controlled by AirNav.

 

 
 

Would you like to see your business listed on this page?

 If your business provides an interesting product or service to pilots, flight crews, aircraft, or users of the Press Enterprise Heliport, you should consider listing it here.  To start the listing process, click on the button below
 
Add a business
 

Other Pages about Press Enterprise Heliport

Update a link
 
Copyright © AirNav, LLC. All rights reserved. Privacy Policy  Contact